sensor_id;sensor_type;location;lat;lon;timestamp;temperature;humidity
29803;DHT22;16702;50.898;4.662;2022-11-11T00:01:49;11.80;99.90
29803;DHT22;16702;50.898;4.662;2022-11-11T00:04:38;11.70;99.90
29803;DHT22;16702;50.898;4.662;2022-11-11T00:07:30;11.70;99.90
29803;DHT22;16702;50.898;4.662;2022-11-11T00:10:19;11.70;99.90
29803;DHT22;16702;50.898;4.662;2022-11-11T00:13:08;11.70;99.90
29803;DHT22;16702;50.898;4.662;2022-11-11T00:16:03;11.70;99.90
29803;DHT22;16702;50.898;4.662;2022-11-11T00:18:52;11.70;99.90
29803;DHT22;16702;50.898;4.662;2022-11-11T00:22:18;11.70;99.90
29803;DHT22;16702;50.898;4.662;2022-11-11T00:25:22;11.70;99.90
29803;DHT22;16702;50.898;4.662;2022-11-11T00:28:12;11.70;99.90
29803;DHT22;16702;50.898;4.662;2022-11-11T00:31:02;11.60;99.90
29803;DHT22;16702;50.898;4.662;2022-11-11T00:33:52;11.70;99.90
29803;DHT22;16702;50.898;4.662;2022-11-11T00:36:41;11.60;99.90
29803;DHT22;16702;50.898;4.662;2022-11-11T00:39:29;11.60;99.90
29803;DHT22;16702;50.898;4.662;2022-11-11T00:42:21;11.70;99.90
29803;DHT22;16702;50.898;4.662;2022-11-11T00:45:11;11.50;99.90
29803;DHT22;16702;50.898;4.662;2022-11-11T00:48:00;11.60;99.90
29803;DHT22;16702;50.898;4.662;2022-11-11T00:51:01;11.50;99.90
29803;DHT22;16702;50.898;4.662;2022-11-11T00:53:50;11.50;99.90
29803;DHT22;16702;50.898;4.662;2022-11-11T00:56:39;11.50;99.90
29803;DHT22;16702;50.898;4.662;2022-11-11T00:59:31;11.60;99.90
29803;DHT22;16702;50.898;4.662;2022-11-11T01:02:20;11.50;99.90
29803;DHT22;16702;50.898;4.662;2022-11-11T01:05:09;11.50;99.90
29803;DHT22;16702;50.898;4.662;2022-11-11T01:07:58;11.60;99.90
29803;DHT22;16702;50.898;4.662;2022-11-11T01:10:47;11.60;99.90
29803;DHT22;16702;50.898;4.662;2022-11-11T01:13:36;11.50;99.90
29803;DHT22;16702;50.898;4.662;2022-11-11T01:16:28;11.60;99.90
29803;DHT22;16702;50.898;4.662;2022-11-11T01:19:17;11.50;99.90
29803;DHT22;16702;50.898;4.662;2022-11-11T01:22:05;11.50;99.90
29803;DHT22;16702;50.898;4.662;2022-11-11T01:24:55;11.50;99.90
29803;DHT22;16702;50.898;4.662;2022-11-11T01:27:43;11.50;99.90
29803;DHT22;16702;50.898;4.662;2022-11-11T01:30:33;11.50;99.90
29803;DHT22;16702;50.898;4.662;2022-11-11T01:33:25;11.50;99.90
29803;DHT22;16702;50.898;4.662;2022-11-11T01:36:16;11.50;99.90
29803;DHT22;16702;50.898;4.662;2022-11-11T01:39:06;11.50;99.90
29803;DHT22;16702;50.898;4.662;2022-11-11T01:41:54;11.50;99.90
29803;DHT22;16702;50.898;4.662;2022-11-11T01:44:47;11.50;99.90
29803;DHT22;16702;50.898;4.662;2022-11-11T01:47:37;11.50;99.90
29803;DHT22;16702;50.898;4.662;2022-11-11T01:51:01;11.50;99.90
29803;DHT22;16702;50.898;4.662;2022-11-11T01:53:54;11.50;99.90
29803;DHT22;16702;50.898;4.662;2022-11-11T01:56:47;11.50;99.90
29803;DHT22;16702;50.898;4.662;2022-11-11T01:59:38;11.50;99.90
29803;DHT22;16702;50.898;4.662;2022-11-11T02:02:33;11.50;99.90
29803;DHT22;16702;50.898;4.662;2022-11-11T02:05:25;11.50;99.90
29803;DHT22;16702;50.898;4.662;2022-11-11T02:08:34;11.60;99.90
29803;DHT22;16702;50.898;4.662;2022-11-11T02:11:25;11.60;99.90
29803;DHT22;16702;50.898;4.662;2022-11-11T02:14:27;11.50;99.90
29803;DHT22;16702;50.898;4.662;2022-11-11T02:17:30;11.50;99.90
29803;DHT22;16702;50.898;4.662;2022-11-11T02:20:22;11.50;99.90
29803;DHT22;16702;50.898;4.662;2022-11-11T02:23:14;11.60;99.90
29803;DHT22;16702;50.898;4.662;2022-11-11T02:26:09;11.50;99.90
29803;DHT22;16702;50.898;4.662;2022-11-11T02:28:59;11.60;99.90
29803;DHT22;16702;50.898;4.662;2022-11-11T02:31:49;11.60;99.90
29803;DHT22;16702;50.898;4.662;2022-11-11T02:34:38;11.50;99.90
29803;DHT22;16702;50.898;4.662;2022-11-11T02:37:27;11.60;99.90
29803;DHT22;16702;50.898;4.662;2022-11-11T02:40:20;11.60;99.90
29803;DHT22;16702;50.898;4.662;2022-11-11T02:43:13;11.60;99.90
29803;DHT22;16702;50.898;4.662;2022-11-11T02:46:05;11.60;99.90
29803;DHT22;16702;50.898;4.662;2022-11-11T02:48:54;11.60;99.90
29803;DHT22;16702;50.898;4.662;2022-11-11T02:51:44;11.60;99.90
29803;DHT22;16702;50.898;4.662;2022-11-11T02:54:33;11.60;99.90
29803;DHT22;16702;50.898;4.662;2022-11-11T02:57:22;11.60;99.90
29803;DHT22;16702;50.898;4.662;2022-11-11T03:00:16;11.60;99.90
29803;DHT22;16702;50.898;4.662;2022-11-11T03:03:05;11.50;99.90
29803;DHT22;16702;50.898;4.662;2022-11-11T03:05:54;11.60;99.90
29803;DHT22;16702;50.898;4.662;2022-11-11T03:08:42;11.60;99.90
29803;DHT22;16702;50.898;4.662;2022-11-11T03:11:31;11.60;99.90
29803;DHT22;16702;50.898;4.662;2022-11-11T03:14:23;11.60;99.90
29803;DHT22;16702;50.898;4.662;2022-11-11T03:17:15;11.60;99.90
29803;DHT22;16702;50.898;4.662;2022-11-11T03:20:17;11.60;99.90
29803;DHT22;16702;50.898;4.662;2022-11-11T03:23:18;11.70;99.90
29803;DHT22;16702;50.898;4.662;2022-11-11T03:26:08;11.60;99.90
29803;DHT22;16702;50.898;4.662;2022-11-11T03:28:54;11.60;99.90
29803;DHT22;16702;50.898;4.662;2022-11-11T03:31:43;11.70;99.90
29803;DHT22;16702;50.898;4.662;2022-11-11T03:34:35;11.60;99.90
29803;DHT22;16702;50.898;4.662;2022-11-11T03:37:24;11.60;99.90
29803;DHT22;16702;50.898;4.662;2022-11-11T03:40:25;11.60;99.90
29803;DHT22;16702;50.898;4.662;2022-11-11T03:43:16;11.60;99.90
29803;DHT22;16702;50.898;4.662;2022-11-11T03:46:05;11.60;99.90
29803;DHT22;16702;50.898;4.662;2022-11-11T03:48:55;11.50;99.90
29803;DHT22;16702;50.898;4.662;2022-11-11T03:51:46;11.50;99.90
29803;DHT22;16702;50.898;4.662;2022-11-11T03:54:35;11.50;99.90
29803;DHT22;16702;50.898;4.662;2022-11-11T03:57:24;11.40;99.90
29803;DHT22;16702;50.898;4.662;2022-11-11T04:00:20;11.50;99.90
29803;DHT22;16702;50.898;4.662;2022-11-11T04:03:11;11.40;99.90
29803;DHT22;16702;50.898;4.662;2022-11-11T04:06:13;11.40;99.90
29803;DHT22;16702;50.898;4.662;2022-11-11T04:09:17;11.40;99.90
29803;DHT22;16702;50.898;4.662;2022-11-11T04:12:19;11.40;99.90
29803;DHT22;16702;50.898;4.662;2022-11-11T04:15:08;11.40;99.90
29803;DHT22;16702;50.898;4.662;2022-11-11T04:18:10;11.40;99.90
29803;DHT22;16702;50.898;4.662;2022-11-11T04:20:59;11.40;99.90
29803;DHT22;16702;50.898;4.662;2022-11-11T04:24:00;11.40;99.90
29803;DHT22;16702;50.898;4.662;2022-11-11T04:27:13;11.40;99.90
29803;DHT22;16702;50.898;4.662;2022-11-11T04:30:00;11.20;99.90
29803;DHT22;16702;50.898;4.662;2022-11-11T04:32:49;11.20;99.90
29803;DHT22;16702;50.898;4.662;2022-11-11T04:35:38;11.30;99.90
29803;DHT22;16702;50.898;4.662;2022-11-11T04:38:27;11.20;99.90
29803;DHT22;16702;50.898;4.662;2022-11-11T04:41:28;11.20;99.90
29803;DHT22;16702;50.898;4.662;2022-11-11T04:44:39;11.30;99.90
29803;DHT22;16702;50.898;4.662;2022-11-11T04:47:52;11.30;99.90
29803;DHT22;16702;50.898;4.662;2022-11-11T04:50:43;11.20;99.90
29803;DHT22;16702;50.898;4.662;2022-11-11T04:53:32;11.20;99.90
29803;DHT22;16702;50.898;4.662;2022-11-11T04:56:20;11.30;99.90
29803;DHT22;16702;50.898;4.662;2022-11-11T04:59:22;11.20;99.90
29803;DHT22;16702;50.898;4.662;2022-11-11T05:02:13;11.20;99.90
29803;DHT22;16702;50.898;4.662;2022-11-11T05:05:15;11.10;99.90
29803;DHT22;16702;50.898;4.662;2022-11-11T05:08:04;11.20;99.90
29803;DHT22;16702;50.898;4.662;2022-11-11T05:11:05;11.20;99.90
29803;DHT22;16702;50.898;4.662;2022-11-11T05:13:56;11.10;99.90
29803;DHT22;16702;50.898;4.662;2022-11-11T05:16:58;11.10;99.90
29803;DHT22;16702;50.898;4.662;2022-11-11T05:20:02;11.10;99.90
29803;DHT22;16702;50.898;4.662;2022-11-11T05:23:03;11.00;99.90
29803;DHT22;16702;50.898;4.662;2022-11-11T05:25:52;10.90;99.90
29803;DHT22;16702;50.898;4.662;2022-11-11T05:28:38;10.90;99.90
29803;DHT22;16702;50.898;4.662;2022-11-11T05:31:28;10.90;99.90
29803;DHT22;16702;50.898;4.662;2022-11-11T05:34:17;10.90;99.90
29803;DHT22;16702;50.898;4.662;2022-11-11T05:37:09;10.90;99.90
29803;DHT22;16702;50.898;4.662;2022-11-11T05:39:58;10.90;99.90
29803;DHT22;16702;50.898;4.662;2022-11-11T05:42:46;10.80;99.90
29803;DHT22;16702;50.898;4.662;2022-11-11T05:45:40;10.80;99.90
29803;DHT22;16702;50.898;4.662;2022-11-11T05:48:30;10.80;99.90
29803;DHT22;16702;50.898;4.662;2022-11-11T05:51:19;10.90;99.90
29803;DHT22;16702;50.898;4.662;2022-11-11T05:54:15;10.80;99.90
29803;DHT22;16702;50.898;4.662;2022-11-11T05:57:04;10.80;99.90
29803;DHT22;16702;50.898;4.662;2022-11-11T05:59:53;10.80;99.90
29803;DHT22;16702;50.898;4.662;2022-11-11T06:02:43;10.80;99.90
29803;DHT22;16702;50.898;4.662;2022-11-11T06:05:32;10.70;99.90
29803;DHT22;16702;50.898;4.662;2022-11-11T06:08:23;10.70;99.90
29803;DHT22;16702;50.898;4.662;2022-11-11T06:11:15;10.70;99.90
29803;DHT22;16702;50.898;4.662;2022-11-11T06:14:04;10.70;99.90
29803;DHT22;16702;50.898;4.662;2022-11-11T06:16:53;10.70;99.90
29803;DHT22;16702;50.898;4.662;2022-11-11T06:19:42;10.60;99.90
29803;DHT22;16702;50.898;4.662;2022-11-11T06:22:33;10.60;99.90
29803;DHT22;16702;50.898;4.662;2022-11-11T06:25:34;10.50;99.90
29803;DHT22;16702;50.898;4.662;2022-11-11T06:28:38;10.60;99.90
29803;DHT22;16702;50.898;4.662;2022-11-11T06:31:27;10.60;99.90
29803;DHT22;16702;50.898;4.662;2022-11-11T06:34:17;10.60;99.90
29803;DHT22;16702;50.898;4.662;2022-11-11T06:37:05;10.60;99.90
29803;DHT22;16702;50.898;4.662;2022-11-11T06:39:54;10.60;99.90
29803;DHT22;16702;50.898;4.662;2022-11-11T06:42:43;10.50;99.90
29803;DHT22;16702;50.898;4.662;2022-11-11T06:45:35;10.60;99.90
29803;DHT22;16702;50.898;4.662;2022-11-11T06:48:26;10.40;99.90
29803;DHT22;16702;50.898;4.662;2022-11-11T06:51:16;10.50;99.90
29803;DHT22;16702;50.898;4.662;2022-11-11T06:54:05;10.40;99.90
29803;DHT22;16702;50.898;4.662;2022-11-11T06:56:54;10.40;99.90
29803;DHT22;16702;50.898;4.662;2022-11-11T06:59:43;10.40;99.90
29803;DHT22;16702;50.898;4.662;2022-11-11T07:02:34;10.40;99.90
29803;DHT22;16702;50.898;4.662;2022-11-11T07:05:23;10.40;99.90
29803;DHT22;16702;50.898;4.662;2022-11-11T07:08:14;10.40;99.90
29803;DHT22;16702;50.898;4.662;2022-11-11T07:11:04;10.30;99.90
29803;DHT22;16702;50.898;4.662;2022-11-11T07:14:00;10.30;99.90
29803;DHT22;16702;50.898;4.662;2022-11-11T07:16:49;10.30;99.90
29803;DHT22;16702;50.898;4.662;2022-11-11T07:19:40;10.30;99.90
29803;DHT22;16702;50.898;4.662;2022-11-11T07:22:30;10.30;99.90
29803;DHT22;16702;50.898;4.662;2022-11-11T07:25:22;10.20;99.90
29803;DHT22;16702;50.898;4.662;2022-11-11T07:28:11;10.20;99.90
29803;DHT22;16702;50.898;4.662;2022-11-11T07:31:00;10.30;99.90
29803;DHT22;16702;50.898;4.662;2022-11-11T07:33:49;10.30;99.90
29803;DHT22;16702;50.898;4.662;2022-11-11T07:36:41;10.30;99.90
29803;DHT22;16702;50.898;4.662;2022-11-11T07:39:30;10.40;99.90
29803;DHT22;16702;50.898;4.662;2022-11-11T07:42:20;10.30;99.90
29803;DHT22;16702;50.898;4.662;2022-11-11T07:45:16;10.30;99.90
29803;DHT22;16702;50.898;4.662;2022-11-11T07:48:05;10.30;99.90
29803;DHT22;16702;50.898;4.662;2022-11-11T07:50:54;10.30;99.90
29803;DHT22;16702;50.898;4.662;2022-11-11T07:53:45;10.50;99.90
29803;DHT22;16702;50.898;4.662;2022-11-11T07:56:34;10.40;99.90
29803;DHT22;16702;50.898;4.662;2022-11-11T07:59:23;10.40;99.90
29803;DHT22;16702;50.898;4.662;2022-11-11T08:02:13;10.40;99.90
29803;DHT22;16702;50.898;4.662;2022-11-11T08:05:02;10.30;99.90
29803;DHT22;16702;50.898;4.662;2022-11-11T08:07:51;10.30;99.90
29803;DHT22;16702;50.898;4.662;2022-11-11T08:10:43;10.30;99.90
29803;DHT22;16702;50.898;4.662;2022-11-11T08:13:32;10.30;99.90
29803;DHT22;16702;50.898;4.662;2022-11-11T08:16:28;10.30;99.90
29803;DHT22;16702;50.898;4.662;2022-11-11T08:19:17;10.20;99.90
29803;DHT22;16702;50.898;4.662;2022-11-11T08:22:06;10.20;99.90
29803;DHT22;16702;50.898;4.662;2022-11-11T08:24:56;10.20;99.90
29803;DHT22;16702;50.898;4.662;2022-11-11T08:27:55;10.30;99.90
29803;DHT22;16702;50.898;4.662;2022-11-11T08:30:45;10.20;99.90
29803;DHT22;16702;50.898;4.662;2022-11-11T08:33:34;10.30;99.90
29803;DHT22;16702;50.898;4.662;2022-11-11T08:36:23;10.30;99.90
29803;DHT22;16702;50.898;4.662;2022-11-11T08:39:12;10.30;99.90
29803;DHT22;16702;50.898;4.662;2022-11-11T08:42:01;10.30;99.90
29803;DHT22;16702;50.898;4.662;2022-11-11T08:44:53;10.30;99.90
29803;DHT22;16702;50.898;4.662;2022-11-11T08:47:43;10.40;99.90
29803;DHT22;16702;50.898;4.662;2022-11-11T08:50:33;10.30;99.90
29803;DHT22;16702;50.898;4.662;2022-11-11T08:53:22;10.30;99.90
29803;DHT22;16702;50.898;4.662;2022-11-11T08:56:12;10.30;99.90
29803;DHT22;16702;50.898;4.662;2022-11-11T08:59:01;10.40;99.90
29803;DHT22;16702;50.898;4.662;2022-11-11T09:01:52;10.50;99.90
29803;DHT22;16702;50.898;4.662;2022-11-11T09:04:41;10.40;99.90
29803;DHT22;16702;50.898;4.662;2022-11-11T09:07:34;10.40;99.90
29803;DHT22;16702;50.898;4.662;2022-11-11T09:10:23;10.40;99.90
29803;DHT22;16702;50.898;4.662;2022-11-11T09:13:13;10.40;99.90
29803;DHT22;16702;50.898;4.662;2022-11-11T09:16:02;10.50;99.90
29803;DHT22;16702;50.898;4.662;2022-11-11T09:18:53;10.60;99.90
29803;DHT22;16702;50.898;4.662;2022-11-11T09:21:43;10.50;99.90
29803;DHT22;16702;50.898;4.662;2022-11-11T09:24:32;10.60;99.90
29803;DHT22;16702;50.898;4.662;2022-11-11T09:27:21;10.60;99.90
29803;DHT22;16702;50.898;4.662;2022-11-11T09:30:11;10.70;99.90
29803;DHT22;16702;50.898;4.662;2022-11-11T09:33:03;10.70;99.90
29803;DHT22;16702;50.898;4.662;2022-11-11T09:35:56;10.80;99.90
29803;DHT22;16702;50.898;4.662;2022-11-11T09:38:46;10.90;99.90
29803;DHT22;16702;50.898;4.662;2022-11-11T09:41:44;11.00;99.90
29803;DHT22;16702;50.898;4.662;2022-11-11T09:44:59;10.90;99.90
29803;DHT22;16702;50.898;4.662;2022-11-11T09:47:58;11.00;99.90
29803;DHT22;16702;50.898;4.662;2022-11-11T09:50:57;11.00;99.90
29803;DHT22;16702;50.898;4.662;2022-11-11T09:53:50;11.10;99.90
29803;DHT22;16702;50.898;4.662;2022-11-11T09:56:42;11.10;99.90
29803;DHT22;16702;50.898;4.662;2022-11-11T09:59:39;11.20;99.90
29803;DHT22;16702;50.898;4.662;2022-11-11T10:02:34;11.30;99.90
29803;DHT22;16702;50.898;4.662;2022-11-11T10:05:32;11.30;99.90
29803;DHT22;16702;50.898;4.662;2022-11-11T10:08:26;11.40;99.90
29803;DHT22;16702;50.898;4.662;2022-11-11T10:11:19;11.40;99.90
29803;DHT22;16702;50.898;4.662;2022-11-11T10:14:10;11.50;99.90
29803;DHT22;16702;50.898;4.662;2022-11-11T10:17:04;11.50;99.90
29803;DHT22;16702;50.898;4.662;2022-11-11T10:20:02;11.60;99.90
29803;DHT22;16702;50.898;4.662;2022-11-11T10:23:02;11.70;99.90
29803;DHT22;16702;50.898;4.662;2022-11-11T10:25:56;11.70;99.90
29803;DHT22;16702;50.898;4.662;2022-11-11T10:28:49;11.70;99.90
29803;DHT22;16702;50.898;4.662;2022-11-11T10:31:40;11.80;99.90
29803;DHT22;16702;50.898;4.662;2022-11-11T10:34:32;11.90;99.90
29803;DHT22;16702;50.898;4.662;2022-11-11T10:37:24;11.90;99.90
29803;DHT22;16702;50.898;4.662;2022-11-11T10:40:19;11.90;99.90
29803;DHT22;16702;50.898;4.662;2022-11-11T10:43:20;12.00;99.90
29803;DHT22;16702;50.898;4.662;2022-11-11T10:46:14;12.20;99.90
29803;DHT22;16702;50.898;4.662;2022-11-11T10:49:06;12.20;99.90
29803;DHT22;16702;50.898;4.662;2022-11-11T10:52:02;12.20;99.90
29803;DHT22;16702;50.898;4.662;2022-11-11T10:54:56;12.30;99.90
29803;DHT22;16702;50.898;4.662;2022-11-11T10:57:52;12.30;99.90
29803;DHT22;16702;50.898;4.662;2022-11-11T11:00:47;12.40;99.90
29803;DHT22;16702;50.898;4.662;2022-11-11T11:03:41;12.40;99.90
29803;DHT22;16702;50.898;4.662;2022-11-11T11:06:33;12.50;99.90
29803;DHT22;16702;50.898;4.662;2022-11-11T11:09:28;12.50;99.90
29803;DHT22;16702;50.898;4.662;2022-11-11T11:12:21;12.50;99.90
29803;DHT22;16702;50.898;4.662;2022-11-11T11:15:15;12.60;99.90
29803;DHT22;16702;50.898;4.662;2022-11-11T11:18:10;12.60;99.90
29803;DHT22;16702;50.898;4.662;2022-11-11T11:21:01;12.70;99.90
29803;DHT22;16702;50.898;4.662;2022-11-11T11:23:50;12.70;99.90
29803;DHT22;16702;50.898;4.662;2022-11-11T11:26:45;12.80;99.90
29803;DHT22;16702;50.898;4.662;2022-11-11T11:29:36;12.80;99.90
29803;DHT22;16702;50.898;4.662;2022-11-11T11:32:28;12.90;99.90
29803;DHT22;16702;50.898;4.662;2022-11-11T11:35:33;12.90;99.90
29803;DHT22;16702;50.898;4.662;2022-11-11T11:38:39;12.90;99.90
29803;DHT22;16702;50.898;4.662;2022-11-11T11:41:39;12.90;99.90
29803;DHT22;16702;50.898;4.662;2022-11-11T11:44:30;12.90;99.90
29803;DHT22;16702;50.898;4.662;2022-11-11T11:47:38;13.00;99.90
29803;DHT22;16702;50.898;4.662;2022-11-11T11:50:57;13.00;99.90
29803;DHT22;16702;50.898;4.662;2022-11-11T11:54:01;13.00;99.90
29803;DHT22;16702;50.898;4.662;2022-11-11T11:56:53;13.00;99.90
29803;DHT22;16702;50.898;4.662;2022-11-11T11:59:50;13.00;99.90
29803;DHT22;16702;50.898;4.662;2022-11-11T12:02:48;13.10;99.90
29803;DHT22;16702;50.898;4.662;2022-11-11T12:05:43;13.20;99.90
29803;DHT22;16702;50.898;4.662;2022-11-11T12:08:52;13.20;99.90
29803;DHT22;16702;50.898;4.662;2022-11-11T12:11:48;13.30;99.90
29803;DHT22;16702;50.898;4.662;2022-11-11T12:14:58;13.30;99.90
29803;DHT22;16702;50.898;4.662;2022-11-11T12:17:56;13.40;99.90
29803;DHT22;16702;50.898;4.662;2022-11-11T12:20:53;13.50;99.90
29803;DHT22;16702;50.898;4.662;2022-11-11T12:23:56;13.50;99.90
29803;DHT22;16702;50.898;4.662;2022-11-11T12:26:50;13.60;99.90
29803;DHT22;16702;50.898;4.662;2022-11-11T12:29:51;13.60;99.90
29803;DHT22;16702;50.898;4.662;2022-11-11T12:36:12;13.60;99.90
29803;DHT22;16702;50.898;4.662;2022-11-11T12:39:24;13.70;99.90
29803;DHT22;16702;50.898;4.662;2022-11-11T12:42:24;13.70;99.90
29803;DHT22;16702;50.898;4.662;2022-11-11T12:45:17;13.80;99.90
29803;DHT22;16702;50.898;4.662;2022-11-11T12:48:21;13.90;99.90
29803;DHT22;16702;50.898;4.662;2022-11-11T12:51:24;13.90;99.90
29803;DHT22;16702;50.898;4.662;2022-11-11T12:54:26;14.00;99.90
29803;DHT22;16702;50.898;4.662;2022-11-11T12:57:24;14.00;99.90
29803;DHT22;16702;50.898;4.662;2022-11-11T13:00:18;14.00;99.90
29803;DHT22;16702;50.898;4.662;2022-11-11T13:03:26;14.00;99.90
29803;DHT22;16702;50.898;4.662;2022-11-11T13:06:42;14.10;99.90
29803;DHT22;16702;50.898;4.662;2022-11-11T13:09:49;14.10;99.90
29803;DHT22;16702;50.898;4.662;2022-11-11T13:12:46;14.20;99.90
29803;DHT22;16702;50.898;4.662;2022-11-11T13:15:37;14.20;99.90
29803;DHT22;16702;50.898;4.662;2022-11-11T13:18:31;14.20;99.90
29803;DHT22;16702;50.898;4.662;2022-11-11T13:21:30;14.30;99.90
29803;DHT22;16702;50.898;4.662;2022-11-11T13:24:22;14.30;99.90
29803;DHT22;16702;50.898;4.662;2022-11-11T13:27:22;14.30;99.90
29803;DHT22;16702;50.898;4.662;2022-11-11T13:30:35;14.40;99.90
29803;DHT22;16702;50.898;4.662;2022-11-11T13:33:35;14.40;99.90
29803;DHT22;16702;50.898;4.662;2022-11-11T13:36:27;14.40;99.90
29803;DHT22;16702;50.898;4.662;2022-11-11T13:39:28;14.40;99.90
29803;DHT22;16702;50.898;4.662;2022-11-11T13:42:25;14.40;99.90
29803;DHT22;16702;50.898;4.662;2022-11-11T13:45:25;14.40;99.90
29803;DHT22;16702;50.898;4.662;2022-11-11T13:48:19;14.40;99.90
29803;DHT22;16702;50.898;4.662;2022-11-11T13:51:25;14.50;99.90
29803;DHT22;16702;50.898;4.662;2022-11-11T13:54:25;14.50;99.90
29803;DHT22;16702;50.898;4.662;2022-11-11T13:57:19;14.40;99.90
29803;DHT22;16702;50.898;4.662;2022-11-11T14:00:24;14.50;99.90
29803;DHT22;16702;50.898;4.662;2022-11-11T14:03:32;14.50;99.90
29803;DHT22;16702;50.898;4.662;2022-11-11T14:06:48;14.50;99.90
29803;DHT22;16702;50.898;4.662;2022-11-11T14:09:52;14.50;99.90
29803;DHT22;16702;50.898;4.662;2022-11-11T14:12:42;14.40;99.90
29803;DHT22;16702;50.898;4.662;2022-11-11T14:15:40;14.40;99.90
29803;DHT22;16702;50.898;4.662;2022-11-11T14:18:41;14.40;99.90
29803;DHT22;16702;50.898;4.662;2022-11-11T14:21:47;14.30;99.90
29803;DHT22;16702;50.898;4.662;2022-11-11T14:24:44;14.30;99.90
29803;DHT22;16702;50.898;4.662;2022-11-11T14:27:34;14.30;99.90
29803;DHT22;16702;50.898;4.662;2022-11-11T14:30:28;14.30;99.90
29803;DHT22;16702;50.898;4.662;2022-11-11T14:33:33;14.30;99.90
29803;DHT22;16702;50.898;4.662;2022-11-11T14:36:28;14.30;99.90
29803;DHT22;16702;50.898;4.662;2022-11-11T14:39:32;14.40;99.90
29803;DHT22;16702;50.898;4.662;2022-11-11T14:42:44;14.20;99.90
29803;DHT22;16702;50.898;4.662;2022-11-11T14:46:02;14.30;99.90
29803;DHT22;16702;50.898;4.662;2022-11-11T14:49:01;14.20;99.90
29803;DHT22;16702;50.898;4.662;2022-11-11T14:51:57;14.20;99.90
29803;DHT22;16702;50.898;4.662;2022-11-11T14:54:52;14.20;99.90
29803;DHT22;16702;50.898;4.662;2022-11-11T14:57:46;14.20;99.90
29803;DHT22;16702;50.898;4.662;2022-11-11T15:00:43;14.20;99.90
29803;DHT22;16702;50.898;4.662;2022-11-11T15:03:37;14.10;99.90
29803;DHT22;16702;50.898;4.662;2022-11-11T15:06:33;14.10;99.90
29803;DHT22;16702;50.898;4.662;2022-11-11T15:09:43;14.10;99.90
29803;DHT22;16702;50.898;4.662;2022-11-11T15:12:47;14.10;99.90
29803;DHT22;16702;50.898;4.662;2022-11-11T15:15:41;14.00;99.90
29803;DHT22;16702;50.898;4.662;2022-11-11T15:18:56;14.00;99.90
29803;DHT22;16702;50.898;4.662;2022-11-11T15:22:01;14.00;99.90
29803;DHT22;16702;50.898;4.662;2022-11-11T15:24:58;13.90;99.90
29803;DHT22;16702;50.898;4.662;2022-11-11T15:27:54;13.90;99.90
29803;DHT22;16702;50.898;4.662;2022-11-11T15:30:52;13.90;99.90
29803;DHT22;16702;50.898;4.662;2022-11-11T15:33:52;13.90;99.90
29803;DHT22;16702;50.898;4.662;2022-11-11T15:36:55;13.80;99.90
29803;DHT22;16702;50.898;4.662;2022-11-11T15:39:48;13.70;99.90
29803;DHT22;16702;50.898;4.662;2022-11-11T15:42:39;13.80;99.90
29803;DHT22;16702;50.898;4.662;2022-11-11T15:45:33;13.70;99.90
29803;DHT22;16702;50.898;4.662;2022-11-11T15:48:24;13.70;99.90
29803;DHT22;16702;50.898;4.662;2022-11-11T15:51:26;13.60;99.90
29803;DHT22;16702;50.898;4.662;2022-11-11T15:54:21;13.50;99.90
29803;DHT22;16702;50.898;4.662;2022-11-11T15:57:20;13.50;99.90
29803;DHT22;16702;50.898;4.662;2022-11-11T16:00:30;13.50;99.90
29803;DHT22;16702;50.898;4.662;2022-11-11T16:03:22;13.50;99.90
29803;DHT22;16702;50.898;4.662;2022-11-11T16:06:14;13.50;99.90
29803;DHT22;16702;50.898;4.662;2022-11-11T16:09:03;13.50;99.90
29803;DHT22;16702;50.898;4.662;2022-11-11T16:11:56;13.40;99.90
29803;DHT22;16702;50.898;4.662;2022-11-11T16:14:48;13.40;99.90
29803;DHT22;16702;50.898;4.662;2022-11-11T16:17:40;13.40;99.90
29803;DHT22;16702;50.898;4.662;2022-11-11T16:20:33;13.30;99.90
29803;DHT22;16702;50.898;4.662;2022-11-11T16:23:24;13.30;99.90
29803;DHT22;16702;50.898;4.662;2022-11-11T16:26:14;13.20;99.90
29803;DHT22;16702;50.898;4.662;2022-11-11T16:29:13;13.20;99.90
29803;DHT22;16702;50.898;4.662;2022-11-11T16:32:18;13.20;99.90
29803;DHT22;16702;50.898;4.662;2022-11-11T16:35:23;13.20;99.90
29803;DHT22;16702;50.898;4.662;2022-11-11T16:38:30;13.10;99.90
29803;DHT22;16702;50.898;4.662;2022-11-11T16:41:27;13.10;99.90
29803;DHT22;16702;50.898;4.662;2022-11-11T16:44:33;13.10;99.90
29803;DHT22;16702;50.898;4.662;2022-11-11T16:47:45;13.10;99.90
29803;DHT22;16702;50.898;4.662;2022-11-11T16:50:51;13.10;99.90
29803;DHT22;16702;50.898;4.662;2022-11-11T16:53:44;13.10;99.90
29803;DHT22;16702;50.898;4.662;2022-11-11T16:56:35;13.00;99.90
29803;DHT22;16702;50.898;4.662;2022-11-11T16:59:36;13.10;99.90
29803;DHT22;16702;50.898;4.662;2022-11-11T17:02:27;13.00;99.90
29803;DHT22;16702;50.898;4.662;2022-11-11T17:05:16;13.00;99.90
29803;DHT22;16702;50.898;4.662;2022-11-11T17:08:27;13.00;99.90
29803;DHT22;16702;50.898;4.662;2022-11-11T17:11:41;12.90;99.90
29803;DHT22;16702;50.898;4.662;2022-11-11T17:14:32;12.90;99.90
29803;DHT22;16702;50.898;4.662;2022-11-11T17:17:24;12.90;99.90
29803;DHT22;16702;50.898;4.662;2022-11-11T17:20:14;12.90;99.90
29803;DHT22;16702;50.898;4.662;2022-11-11T17:23:03;12.80;99.90
29803;DHT22;16702;50.898;4.662;2022-11-11T17:25:54;12.80;99.90
29803;DHT22;16702;50.898;4.662;2022-11-11T17:28:45;12.80;99.90
29803;DHT22;16702;50.898;4.662;2022-11-11T17:31:34;12.80;99.90
29803;DHT22;16702;50.898;4.662;2022-11-11T17:34:26;12.80;99.90
29803;DHT22;16702;50.898;4.662;2022-11-11T17:37:15;12.70;99.90
29803;DHT22;16702;50.898;4.662;2022-11-11T17:40:05;12.70;99.90
29803;DHT22;16702;50.898;4.662;2022-11-11T17:42:54;12.60;99.90
29803;DHT22;16702;50.898;4.662;2022-11-11T17:45:43;12.60;99.90
29803;DHT22;16702;50.898;4.662;2022-11-11T17:48:32;12.60;99.90
29803;DHT22;16702;50.898;4.662;2022-11-11T17:51:24;12.50;99.90
29803;DHT22;16702;50.898;4.662;2022-11-11T17:54:13;12.50;99.90
29803;DHT22;16702;50.898;4.662;2022-11-11T17:57:01;12.50;99.90
29803;DHT22;16702;50.898;4.662;2022-11-11T17:59:50;12.50;99.90
29803;DHT22;16702;50.898;4.662;2022-11-11T18:02:39;12.40;99.90
29803;DHT22;16702;50.898;4.662;2022-11-11T18:05:28;12.40;99.90
29803;DHT22;16702;50.898;4.662;2022-11-11T18:08:20;12.40;99.90
29803;DHT22;16702;50.898;4.662;2022-11-11T18:11:09;12.30;99.90
29803;DHT22;16702;50.898;4.662;2022-11-11T18:13:58;12.30;99.90
29803;DHT22;16702;50.898;4.662;2022-11-11T18:16:47;12.30;99.90
29803;DHT22;16702;50.898;4.662;2022-11-11T18:19:36;12.30;99.90
29803;DHT22;16702;50.898;4.662;2022-11-11T18:22:28;12.30;99.90
29803;DHT22;16702;50.898;4.662;2022-11-11T18:25:19;12.30;99.90